createdAt,value
2022-12-26T00:01:43.079Z,36.99
2022-12-26T00:04:50.780Z,36.88
2022-12-26T00:07:02.201Z,36.91
2022-12-26T00:09:34.571Z,37.12
2022-12-26T00:12:04.028Z,36.98
2022-12-26T00:14:32.839Z,37.01
2022-12-26T00:17:02.489Z,37.06
2022-12-26T00:19:31.695Z,36.97
2022-12-26T00:22:01.165Z,36.95
2022-12-26T00:24:30.391Z,37.01
2022-12-26T00:27:01.987Z,36.90
2022-12-26T00:29:31.138Z,36.98
2022-12-26T00:32:00.468Z,36.92
2022-12-26T00:34:29.904Z,36.92
2022-12-26T00:36:58.796Z,37.03
2022-12-26T00:39:28.325Z,36.84
2022-12-26T00:41:57.336Z,36.95
2022-12-26T00:44:28.896Z,36.99
2022-12-26T00:46:57.717Z,36.96
2022-12-26T00:49:26.970Z,37.13
2022-12-26T00:51:56.090Z,37.00
2022-12-26T00:54:25.452Z,37.07
2022-12-26T00:56:54.493Z,37.00
2022-12-26T00:59:23.551Z,37.10
2022-12-26T01:01:54.537Z,37.02
2022-12-26T01:04:23.970Z,37.04
2022-12-26T01:06:53.275Z,37.04
2022-12-26T01:09:22.205Z,37.04
2022-12-26T01:11:51.339Z,37.02
2022-12-26T01:14:20.347Z,37.09
2022-12-26T01:16:49.447Z,37.10
2022-12-26T01:19:20.992Z,37.03
2022-12-26T01:21:50.077Z,37.07
2022-12-26T01:24:19.283Z,37.02
2022-12-26T01:26:48.201Z,37.16
2022-12-26T01:29:17.632Z,37.11
2022-12-26T01:31:47.028Z,37.10
2022-12-26T01:34:15.939Z,37.16
2022-12-26T01:36:47.041Z,37.00
2022-12-26T01:39:16.293Z,37.15
2022-12-26T01:41:45.266Z,37.03
2022-12-26T01:44:47.637Z,37.24
2022-12-26T01:47:17.540Z,37.01
2022-12-26T01:49:50.119Z,37.01
2022-12-26T01:52:26.207Z,37.10
2022-12-26T01:54:57.005Z,37.20
2022-12-26T01:57:30.157Z,37.18
2022-12-26T02:00:01.039Z,37.22
2022-12-26T02:02:31.877Z,37.18
2022-12-26T02:05:17.964Z,37.14
2022-12-26T02:07:49.438Z,37.09
2022-12-26T02:10:24.637Z,37.16
2022-12-26T02:12:53.266Z,37.02
2022-12-26T02:15:22.527Z,37.13
2022-12-26T02:17:51.243Z,37.14
2022-12-26T02:20:23.582Z,37.15
2022-12-26T02:23:36.994Z,37.33
2022-12-26T02:26:35.336Z,37.47
2022-12-26T02:29:32.177Z,37.34
2022-12-26T02:32:12.456Z,37.25
2022-12-26T02:34:52.996Z,37.15
2022-12-26T02:37:29.487Z,37.14
2022-12-26T02:40:28.869Z,37.43
2022-12-26T02:43:01.955Z,37.21
2022-12-26T02:45:57.344Z,37.15
2022-12-26T02:48:38.441Z,37.30
2022-12-26T02:51:37.996Z,37.27
2022-12-26T02:54:34.326Z,37.26
2022-12-26T02:57:24.891Z,37.17
2022-12-26T03:00:16.866Z,37.29
2022-12-26T03:03:08.063Z,37.23
2022-12-26T03:06:01.152Z,37.29
2022-12-26T03:08:50.629Z,37.25
2022-12-26T03:11:37.464Z,37.30
2022-12-26T03:14:16.336Z,37.32
2022-12-26T03:17:06.129Z,37.16
2022-12-26T03:19:38.076Z,37.19
2022-12-26T03:22:31.039Z,37.25
2022-12-26T03:25:19.703Z,37.26
2022-12-26T03:27:48.834Z,37.19
2022-12-26T03:30:35.923Z,37.13
2022-12-26T03:33:05.336Z,37.20
2022-12-26T03:35:34.963Z,37.28
2022-12-26T03:38:10.300Z,37.23
2022-12-26T03:41:08.313Z,37.39
2022-12-26T03:44:11.261Z,37.42
2022-12-26T03:47:10.968Z,37.34
2022-12-26T03:50:03.001Z,37.38
2022-12-26T03:52:58.008Z,37.33
2022-12-26T03:55:51.580Z,37.29
2022-12-26T03:58:45.186Z,37.37
2022-12-26T04:01:36.584Z,37.34
2022-12-26T04:04:24.874Z,37.18
2022-12-26T04:07:15.147Z,37.29
2022-12-26T04:10:05.278Z,37.21
2022-12-26T04:12:55.348Z,37.33
2022-12-26T04:15:47.312Z,37.30
2022-12-26T04:18:38.229Z,37.14
2022-12-26T04:21:36.272Z,37.39
2022-12-26T04:24:26.972Z,37.47
2022-12-26T04:27:17.851Z,37.38
2022-12-26T04:30:05.800Z,37.35
2022-12-26T04:32:58.805Z,37.43
2022-12-26T04:35:49.924Z,37.45
2022-12-26T04:38:40.525Z,37.48
2022-12-26T04:41:28.596Z,37.31
2022-12-26T04:44:06.925Z,37.46
2022-12-26T04:46:40.801Z,37.57
2022-12-26T04:49:28.506Z,37.33
2022-12-26T04:51:58.925Z,37.40
2022-12-26T04:54:29.290Z,37.31
2022-12-26T04:56:58.516Z,37.42
2022-12-26T04:59:27.911Z,37.42
2022-12-26T05:02:16.158Z,37.44
2022-12-26T05:05:02.452Z,37.36
2022-12-26T05:07:50.445Z,37.32
2022-12-26T05:10:21.751Z,37.44
2022-12-26T05:12:51.101Z,37.33
2022-12-26T05:15:20.715Z,37.48
2022-12-26T05:18:09.602Z,37.38
2022-12-26T05:20:58.365Z,37.48
2022-12-26T05:23:46.096Z,37.52
2022-12-26T05:26:34.648Z,37.46
2022-12-26T05:29:05.640Z,37.44
2022-12-26T05:31:36.881Z,37.51
2022-12-26T05:34:07.300Z,37.45
2022-12-26T05:36:40.751Z,37.42
2022-12-26T05:39:10.981Z,37.43
2022-12-26T05:41:41.152Z,37.34
2022-12-26T05:44:11.499Z,37.51
2022-12-26T05:46:43.020Z,37.47
2022-12-26T05:49:15.288Z,37.59
2022-12-26T05:51:44.454Z,37.53
2022-12-26T05:54:13.695Z,37.53
2022-12-26T05:56:49.003Z,37.51
2022-12-26T05:59:18.132Z,37.42
2022-12-26T06:01:47.350Z,37.42
2022-12-26T06:04:18.263Z,37.56
2022-12-26T06:06:46.874Z,37.57
2022-12-26T06:09:15.974Z,37.60
2022-12-26T06:11:48.721Z,37.52
2022-12-26T06:14:18.248Z,37.63
2022-12-26T06:16:47.746Z,37.45
2022-12-26T06:19:18.902Z,37.61
2022-12-26T06:21:48.201Z,37.57
2022-12-26T06:24:17.089Z,37.61
2022-12-26T06:26:45.781Z,37.57
2022-12-26T06:29:15.117Z,37.55
2022-12-26T06:31:43.778Z,37.59
2022-12-26T06:34:13.363Z,37.51
2022-12-26T06:36:44.620Z,37.53
2022-12-26T06:39:14.079Z,37.46
2022-12-26T06:41:43.520Z,37.57
2022-12-26T06:44:17.914Z,37.56
2022-12-26T06:46:47.532Z,37.65
2022-12-26T06:49:17.274Z,37.69
2022-12-26T06:51:48.463Z,37.56
2022-12-26T06:54:17.933Z,37.65
2022-12-26T06:56:47.098Z,37.74
2022-12-26T06:59:15.727Z,37.67
2022-12-26T07:01:44.998Z,37.52
2022-12-26T07:04:15.072Z,37.63
2022-12-26T07:06:43.760Z,37.56
2022-12-26T07:09:17.424Z,37.51
2022-12-26T07:11:48.282Z,37.57
2022-12-26T07:14:18.091Z,37.66
2022-12-26T07:16:47.726Z,37.58
2022-12-26T07:19:18.999Z,37.65
2022-12-26T07:21:47.904Z,37.51
2022-12-26T07:24:21.949Z,37.62
2022-12-26T07:26:51.395Z,37.67
2022-12-26T07:29:20.751Z,37.67
2022-12-26T07:31:49.924Z,37.63
2022-12-26T07:34:19.251Z,37.67
2022-12-26T07:36:48.067Z,37.70
2022-12-26T07:39:18.914Z,37.66
2022-12-26T07:41:59.778Z,37.70
2022-12-26T07:44:30.460Z,37.79
2022-12-26T07:47:00.726Z,37.63
2022-12-26T07:49:30.439Z,37.58
2022-12-26T07:52:00.329Z,37.64
2022-12-26T07:54:32.861Z,37.69
2022-12-26T07:57:22.354Z,37.69
2022-12-26T07:59:53.480Z,37.69
2022-12-26T08:02:23.363Z,37.59
2022-12-26T08:04:52.753Z,37.68
2022-12-26T08:07:21.310Z,37.62
2022-12-26T08:09:52.602Z,37.69
2022-12-26T08:12:25.001Z,37.63
2022-12-26T08:14:53.743Z,37.62
2022-12-26T08:17:22.385Z,37.80
2022-12-26T08:19:51.599Z,37.63
2022-12-26T08:22:20.833Z,37.65
2022-12-26T08:24:52.151Z,37.68
2022-12-26T08:27:21.056Z,37.74
2022-12-26T08:29:50.114Z,37.85
2022-12-26T08:32:19.189Z,37.70
2022-12-26T08:34:48.231Z,37.75
2022-12-26T08:37:17.504Z,37.62
2022-12-26T08:39:47.019Z,37.74
2022-12-26T08:42:18.489Z,37.83
2022-12-26T08:44:47.648Z,37.70
2022-12-26T08:47:17.660Z,37.74
2022-12-26T08:49:47.200Z,37.80
2022-12-26T08:52:16.092Z,37.72
2022-12-26T08:54:45.244Z,37.74
2022-12-26T08:57:14.474Z,37.75
2022-12-26T08:59:45.114Z,37.82
2022-12-26T09:02:13.818Z,37.76
2022-12-26T09:04:42.714Z,37.81
2022-12-26T09:07:11.846Z,37.79
2022-12-26T09:09:40.881Z,37.79
2022-12-26T09:12:09.974Z,37.83
2022-12-26T09:14:39.039Z,37.93
2022-12-26T09:17:10.213Z,37.67
2022-12-26T09:19:39.403Z,37.83
2022-12-26T09:22:26.609Z,37.92
2022-12-26T09:24:57.458Z,37.85
2022-12-26T09:27:27.065Z,37.79
2022-12-26T09:29:56.102Z,37.84
2022-12-26T09:32:27.919Z,37.89
2022-12-26T09:34:57.088Z,37.78
2022-12-26T09:37:26.286Z,37.79
2022-12-26T09:39:55.097Z,37.88
2022-12-26T09:42:33.460Z,37.98
2022-12-26T09:45:10.637Z,37.89
2022-12-26T09:47:49.925Z,38.00
2022-12-26T09:50:26.498Z,37.81
2022-12-26T09:52:59.059Z,37.75
2022-12-26T09:55:39.471Z,38.06
2022-12-26T09:58:19.485Z,38.06
2022-12-26T10:00:55.098Z,37.76
2022-12-26T10:03:26.581Z,37.66
2022-12-26T10:06:09.562Z,38.01
2022-12-26T10:08:50.312Z,37.99
2022-12-26T10:11:26.938Z,37.92
2022-12-26T10:14:01.987Z,37.90
2022-12-26T10:16:48.282Z,38.15
2022-12-26T10:19:34.331Z,38.06
2022-12-26T10:22:17.245Z,38.00
2022-12-26T10:24:48.486Z,37.88
2022-12-26T10:27:20.422Z,38.07
2022-12-26T10:29:53.451Z,37.80
2022-12-26T10:32:28.195Z,37.95
2022-12-26T10:35:00.718Z,37.89
2022-12-26T10:37:33.599Z,37.93
2022-12-26T10:40:09.268Z,38.01
2022-12-26T10:42:41.063Z,37.95
2022-12-26T10:45:19.219Z,38.10
2022-12-26T10:47:49.858Z,37.98
2022-12-26T10:50:27.438Z,38.01
2022-12-26T10:52:58.397Z,37.98
2022-12-26T10:55:31.826Z,37.96
2022-12-26T10:58:07.987Z,37.88
2022-12-26T11:00:37.084Z,38.00
2022-12-26T11:03:08.630Z,37.98
2022-12-26T11:06:07.001Z,38.04
2022-12-26T11:08:42.972Z,38.02
2022-12-26T11:11:16.613Z,38.06
2022-12-26T11:13:52.082Z,37.89
2022-12-26T11:16:27.494Z,38.17
2022-12-26T11:18:58.114Z,38.02
2022-12-26T11:21:30.350Z,37.97
2022-12-26T11:24:19.895Z,38.19
2022-12-26T11:26:49.311Z,38.02
2022-12-26T11:29:20.267Z,37.95
2022-12-26T11:31:55.241Z,37.90
2022-12-26T11:34:33.141Z,38.08
2022-12-26T11:37:06.219Z,38.06
2022-12-26T11:39:37.870Z,38.03
2022-12-26T11:42:11.955Z,38.04
2022-12-26T11:44:46.038Z,38.20
2022-12-26T11:47:17.826Z,38.01
2022-12-26T11:49:53.780Z,38.12
2022-12-26T11:52:38.223Z,38.26
2022-12-26T11:55:30.994Z,38.13
2022-12-26T11:58:02.208Z,38.04
2022-12-26T12:00:32.183Z,38.02
2022-12-26T12:03:01.267Z,38.10
2022-12-26T12:05:40.366Z,37.99
2022-12-26T12:08:33.316Z,38.19
2022-12-26T12:11:23.860Z,38.16
2022-12-26T12:14:12.556Z,38.26
2022-12-26T12:16:52.576Z,38.20
2022-12-26T12:19:36.254Z,38.28
2022-12-26T12:22:15.891Z,38.20
2022-12-26T12:25:02.907Z,38.06
2022-12-26T12:27:35.363Z,38.03
2022-12-26T12:30:20.024Z,38.30
2022-12-26T12:33:05.523Z,38.21
2022-12-26T12:35:44.140Z,38.20
2022-12-26T12:38:28.452Z,38.26
2022-12-26T12:41:12.913Z,38.17
2022-12-26T12:43:47.233Z,38.22
2022-12-26T12:46:25.421Z,38.25
2022-12-26T12:49:17.262Z,38.37
2022-12-26T12:51:53.257Z,38.07
2022-12-26T12:54:37.959Z,38.29
2022-12-26T12:57:19.403Z,38.23
2022-12-26T12:59:59.101Z,38.24
2022-12-26T13:02:34.471Z,38.26
2022-12-26T13:05:17.195Z,38.45
2022-12-26T13:07:53.197Z,38.26
2022-12-26T13:10:27.328Z,38.22
2022-12-26T13:13:00.151Z,38.20
2022-12-26T13:15:36.464Z,38.23
2022-12-26T13:18:10.221Z,38.17
2022-12-26T13:20:43.879Z,38.29
2022-12-26T13:23:36.725Z,38.22
2022-12-26T13:26:14.053Z,38.25
2022-12-26T13:29:06.210Z,38.30
2022-12-26T13:31:37.089Z,38.13
2022-12-26T13:34:10.169Z,38.22
2022-12-26T13:36:45.591Z,38.21
2022-12-26T13:39:44.228Z,38.54
2022-12-26T13:42:51.168Z,38.43
2022-12-26T13:45:51.487Z,38.48
2022-12-26T13:49:10.205Z,38.55
2022-12-26T13:51:49.045Z,38.36
2022-12-26T13:54:18.836Z,38.20
2022-12-26T13:57:23.408Z,38.62
2022-12-26T14:00:20.619Z,38.57
2022-12-26T14:03:25.558Z,38.50
2022-12-26T14:06:21.171Z,38.53
2022-12-26T14:09:08.189Z,38.40
2022-12-26T14:11:54.555Z,38.37
2022-12-26T14:14:35.349Z,38.50
2022-12-26T14:17:17.214Z,38.32
2022-12-26T14:20:00.580Z,38.33
2022-12-26T14:22:42.306Z,38.45
2022-12-26T14:25:23.350Z,38.35
2022-12-26T14:27:57.936Z,38.37
2022-12-26T14:30:32.426Z,38.37
2022-12-26T14:33:20.492Z,38.39
2022-12-26T14:36:00.291Z,38.35
2022-12-26T14:38:46.356Z,38.44
2022-12-26T14:41:32.334Z,38.33
2022-12-26T14:44:12.502Z,38.59
2022-12-26T14:47:03.476Z,38.52
2022-12-26T14:49:44.078Z,38.47
2022-12-26T14:52:41.192Z,38.68
2022-12-26T14:55:50.766Z,38.63
2022-12-26T14:58:44.842Z,38.65
2022-12-26T15:01:46.418Z,38.49
2022-12-26T15:04:50.036Z,38.70
2022-12-26T15:07:45.737Z,38.51
2022-12-26T15:10:38.268Z,38.54
2022-12-26T15:13:40.031Z,38.64
2022-12-26T15:16:29.891Z,38.72
2022-12-26T15:19:26.862Z,38.74
2022-12-26T15:22:19.536Z,38.60
2022-12-26T15:25:19.680Z,38.52
2022-12-26T15:28:26.148Z,38.76
2022-12-26T15:31:28.923Z,38.71
2022-12-26T15:34:05.470Z,38.35
2022-12-26T15:36:46.065Z,38.35
2022-12-26T15:39:26.229Z,38.53
2022-12-26T15:42:04.990Z,38.50
2022-12-26T15:44:45.002Z,38.53
2022-12-26T15:47:21.832Z,38.45
2022-12-26T15:50:11.082Z,38.64
2022-12-26T15:52:49.196Z,38.47
2022-12-26T15:55:32.175Z,38.43
2022-12-26T15:58:08.268Z,38.44
2022-12-26T16:00:40.583Z,38.45
2022-12-26T16:03:28.544Z,38.57
2022-12-26T16:06:04.191Z,38.39
2022-12-26T16:09:04.306Z,38.75
2022-12-26T16:11:45.112Z,38.46
2022-12-26T16:14:25.956Z,38.44
2022-12-26T16:16:54.821Z,38.41
2022-12-26T16:19:26.461Z,38.32
2022-12-26T16:22:20.162Z,38.47
2022-12-26T16:24:51.740Z,38.40
2022-12-26T16:27:23.465Z,38.41
2022-12-26T16:29:55.299Z,38.56
2022-12-26T16:32:30.923Z,38.60
2022-12-26T16:35:00.483Z,38.47
2022-12-26T16:37:32.580Z,38.45
2022-12-26T16:40:22.581Z,38.83
2022-12-26T16:43:01.258Z,38.46
2022-12-26T16:45:34.376Z,38.60
2022-12-26T16:48:04.693Z,38.53
2022-12-26T16:50:36.523Z,38.50
2022-12-26T16:53:13.639Z,38.72
2022-12-26T16:55:48.158Z,38.42
2022-12-26T16:58:22.740Z,38.57
2022-12-26T17:01:07.794Z,38.55
2022-12-26T17:03:43.201Z,38.49
2022-12-26T17:06:16.072Z,38.58
2022-12-26T17:08:51.381Z,38.32
2022-12-26T17:11:28.236Z,38.51
2022-12-26T17:13:58.381Z,38.58
2022-12-26T17:16:30.406Z,38.40
2022-12-26T17:19:12.948Z,38.63
2022-12-26T17:21:42.177Z,38.42
2022-12-26T17:24:27.144Z,38.67
2022-12-26T17:27:11.694Z,38.61
2022-12-26T17:29:53.799Z,38.54
2022-12-26T17:32:33.868Z,38.65
2022-12-26T17:35:06.463Z,38.61
2022-12-26T17:37:35.443Z,38.51
2022-12-26T17:40:24.271Z,38.69
2022-12-26T17:42:56.749Z,38.49
2022-12-26T17:45:28.608Z,38.56
2022-12-26T17:47:59.280Z,38.50
2022-12-26T17:50:35.556Z,38.47
2022-12-26T17:53:07.538Z,38.42
2022-12-26T17:55:38.300Z,38.37
2022-12-26T17:58:07.668Z,38.54
2022-12-26T18:00:36.619Z,38.47
2022-12-26T18:03:06.005Z,38.57
2022-12-26T18:05:35.347Z,38.56
2022-12-26T18:08:04.638Z,38.73
2022-12-26T18:10:36.617Z,38.38
2022-12-26T18:13:11.690Z,38.49
2022-12-26T18:15:41.091Z,38.52
2022-12-26T18:18:17.720Z,38.48
2022-12-26T18:20:46.448Z,38.59
2022-12-26T18:23:15.183Z,38.35
2022-12-26T18:25:44.637Z,38.56
2022-12-26T18:28:17.522Z,38.55
2022-12-26T18:30:47.175Z,38.48
2022-12-26T18:33:16.418Z,38.54
2022-12-26T18:35:48.438Z,38.52
2022-12-26T18:38:19.090Z,38.59
2022-12-26T18:40:50.940Z,38.57
2022-12-26T18:43:21.876Z,38.47
2022-12-26T18:45:51.966Z,38.60
2022-12-26T18:48:22.030Z,38.32
2022-12-26T18:50:50.931Z,38.47
2022-12-26T18:53:20.543Z,38.57
2022-12-26T18:55:50.628Z,38.48
2022-12-26T18:58:30.578Z,38.60
2022-12-26T19:01:05.382Z,38.33
2022-12-26T19:03:35.385Z,38.66
2022-12-26T19:06:04.428Z,38.34
2022-12-26T19:08:33.232Z,38.49
2022-12-26T19:11:04.038Z,38.33
2022-12-26T19:13:36.749Z,38.49
2022-12-26T19:16:05.792Z,38.38
2022-12-26T19:18:35.756Z,38.43
2022-12-26T19:21:05.441Z,38.44
2022-12-26T19:23:34.717Z,38.46
2022-12-26T19:26:11.233Z,38.39
2022-12-26T19:28:43.352Z,38.41
2022-12-26T19:31:17.370Z,38.46
2022-12-26T19:33:46.839Z,38.46
2022-12-26T19:36:16.475Z,38.45
2022-12-26T19:38:45.576Z,38.59
2022-12-26T19:41:17.655Z,38.33
2022-12-26T19:43:49.320Z,38.44
2022-12-26T19:46:18.939Z,38.33
2022-12-26T19:48:58.122Z,38.35
2022-12-26T19:51:28.184Z,38.45
2022-12-26T19:53:57.519Z,38.26
2022-12-26T19:56:29.289Z,38.26
2022-12-26T19:59:01.938Z,38.47
2022-12-26T20:01:35.408Z,38.37
2022-12-26T20:04:07.447Z,38.47
2022-12-26T20:06:44.938Z,38.31
2022-12-26T20:09:20.629Z,38.31
2022-12-26T20:11:59.710Z,38.37
2022-12-26T20:14:34.337Z,38.34
2022-12-26T20:17:05.469Z,38.43
2022-12-26T20:19:37.383Z,38.30
2022-12-26T20:22:09.194Z,38.42
2022-12-26T20:24:38.616Z,38.42
2022-12-26T20:27:08.248Z,38.36
2022-12-26T20:29:40.947Z,38.43
2022-12-26T20:32:11.555Z,38.17
2022-12-26T20:34:41.228Z,38.31
2022-12-26T20:37:11.448Z,38.29
2022-12-26T20:39:41.291Z,38.35
2022-12-26T20:42:11.625Z,38.43
2022-12-26T20:44:47.374Z,38.35
2022-12-26T20:47:17.852Z,38.20
2022-12-26T20:49:47.861Z,38.26
2022-12-26T20:52:17.623Z,38.36
2022-12-26T20:54:47.396Z,38.24
2022-12-26T20:57:16.628Z,38.37
2022-12-26T20:59:47.521Z,38.45
2022-12-26T21:02:16.574Z,38.30
2022-12-26T21:04:45.718Z,38.37
2022-12-26T21:07:14.957Z,38.26
2022-12-26T21:09:46.419Z,38.33
2022-12-26T21:12:16.625Z,38.27
2022-12-26T21:14:47.779Z,38.31
2022-12-26T21:17:19.371Z,38.30
2022-12-26T21:19:48.634Z,38.34
2022-12-26T21:22:18.083Z,38.22
2022-12-26T21:24:47.588Z,38.26
2022-12-26T21:27:21.252Z,38.32
2022-12-26T21:29:52.084Z,38.30
2022-12-26T21:32:21.397Z,38.28
2022-12-26T21:34:53.319Z,38.29
2022-12-26T21:37:44.638Z,38.27
2022-12-26T21:40:16.005Z,38.35
2022-12-26T21:42:47.010Z,38.31
2022-12-26T21:45:20.483Z,38.27
2022-12-26T21:47:50.259Z,38.26
2022-12-26T21:50:21.403Z,38.32
2022-12-26T21:52:50.128Z,38.47
2022-12-26T21:55:29.563Z,38.32
2022-12-26T21:58:00.505Z,38.41
2022-12-26T22:00:36.695Z,38.21
2022-12-26T22:03:23.893Z,38.26
2022-12-26T22:05:55.357Z,38.20
2022-12-26T22:08:26.197Z,38.16
2022-12-26T22:11:11.545Z,38.19
2022-12-26T22:13:47.668Z,38.33
2022-12-26T22:16:22.696Z,38.34
2022-12-26T22:18:52.680Z,38.28
2022-12-26T22:21:26.724Z,38.07
2022-12-26T22:23:57.426Z,38.36
2022-12-26T22:26:28.559Z,38.20
2022-12-26T22:28:59.603Z,38.23
2022-12-26T22:31:34.014Z,38.40
2022-12-26T22:34:06.353Z,38.28
2022-12-26T22:36:37.997Z,38.17
2022-12-26T22:39:08.800Z,38.15
2022-12-26T22:41:39.619Z,38.31
2022-12-26T22:44:10.651Z,38.24
2022-12-26T22:46:57.258Z,38.29
2022-12-26T22:49:27.273Z,38.14
2022-12-26T22:51:57.662Z,38.12
2022-12-26T22:54:27.420Z,38.23
2022-12-26T22:56:58.289Z,38.14
2022-12-26T23:00:06.297Z,38.27
2022-12-26T23:02:21.830Z,38.39
2022-12-26T23:04:52.678Z,38.11
2022-12-26T23:07:28.991Z,38.07
2022-12-26T23:09:59.228Z,38.17
2022-12-26T23:12:48.523Z,38.23
2022-12-26T23:15:22.622Z,38.15
2022-12-26T23:18:18.210Z,38.21
2022-12-26T23:21:05.853Z,38.09
2022-12-26T23:23:35.688Z,38.07
2022-12-26T23:26:05.957Z,38.02
2022-12-26T23:28:52.454Z,38.15
2022-12-26T23:31:22.471Z,38.12
2022-12-26T23:34:00.331Z,38.09
2022-12-26T23:36:29.587Z,38.17
2022-12-26T23:38:58.458Z,38.03
2022-12-26T23:41:28.571Z,38.23
2022-12-26T23:43:57.781Z,38.12
2022-12-26T23:46:26.797Z,38.30
2022-12-26T23:48:58.290Z,38.28
2022-12-26T23:51:27.285Z,38.10
2022-12-26T23:53:56.014Z,38.12
2022-12-26T23:56:25.386Z,38.20
2022-12-26T23:58:53.994Z,38.08
